AirNav   Pilot Hours Calculator
 
 1171 users online  

9IS8 Gibson Area Hospital Heliport
Gibson City, Illinois, USA

GOING TO GIBSON CITY?


FAA INFORMATION EFFECTIVE 26 JANUARY 2023

Location

FAA Identifier: 9IS8
Lat/Long: 40-28-46.7500N 088-22-10.0200W
40-28.779167N 088-22.167000W
40.4796528,-88.3694500
(estimated)
Elevation: 782 ft. / 238 m (estimated)
Variation: 00W (1985)
Time zone: UTC -6 (UTC -5 during Daylight Saving Time)
Zip code: 60936

Heliport Operations

Heliport use: Private use, MEDICAL USE.
Activation date: 09/1986
Control tower: no
ARTCC: CHICAGO CENTER
FSS: SAINT LOUIS FLIGHT SERVICE STATION
Attendance: IREG
Wind indicator: yes
Segmented circle: no
Lights: SS-SR

Heliport Communications

WX AWOS-3 at TIP (15 nm SE): 119.025 (217-892-4999)

Nearby radio navigation aids

VOR radial/distance  VOR name  Freq  Var
RBSr235/11.2ROBERTS VOR/DME116.8002E
BMIr087/25.6BLOOMINGTON VOR/DME108.2003E
PNTr138/26.4PONTIAC VOR/DME109.6003E
CMIr348/27.0CHAMPAIGN VORTAC110.0003E
DNVr285/38.8DANVILLE VORTAC111.0002E

Heliport Services

Runway Information

Helipad H1

Dimensions: 40 x 40 ft. / 12 x 12 m
Surface: concrete
Runway edge lights: PERI
Latitude: 40-28.779167N
Longitude: 088-22.167000W
Elevation: 782.0 ft.
Traffic pattern: leftleft

Heliport Ownership and Management from official FAA records

Ownership: Privately-owned
Owner: GIBSON AREA HOSPITAL & HEALTH SVC
1120 N MELVIN ST
GIBSON CITY, IL 60936
Phone 217-784-4251
Manager: DANNY ZEIGLER
1120 N MELVIN ST
GIBSON, IL 60936
Phone (217) 784-2503

Additional Remarks

FOR CD CTC CHICAGO ARTCC AT 630-906-8921.

Instrument Procedures

There are no published instrument procedures at 9IS8.

Some nearby airports with instrument procedures:

1C1 - Paxton Airport (11 nm E)
KTIP - Rantoul National Aviation Center Airport-Frank Elliott Field (15 nm SE)
C16 - Frasca Field Airport (21 nm S)
KBMI - Central Illinois Regional Airport/Bloomington-Normal (25 nm W)
KCMI - University of Illinois/Willard Airport (27 nm S)
 
Loc | Ops | Rwys | IFR | FBO | Links
Com | Nav | Svcs | Stats | Notes
Area around 9IS8 (Gibson Area Hospital Heliport)
 
Road maps at: MapQuest Bing Google
 
Aerial photo
No photo
 
Sectional chart

 
Airport distance calculator
Flying to Gibson Area Hospital Heliport? Find the distance to fly.

From to 9IS8

Sunrise and sunset
Times for 08-Feb-2023
 Local
(UTC-6)
 Zulu
(UTC)
Morning civil twilight06:2812:28
Sunrise06:5712:57
Sunset17:1923:19
Evening civil twilight17:4723:47

Current date and time
Zulu (UTC)  09-Feb-2023 02:34:33
Local (UTC-6)  08-Feb-2023 20:34:33
 
METAR
KTIP 
15nm SE 
090215Z AUTO 08008KT 5SM RA SCT020 BKN026 OVC090 03/03 A3002 RMK AO2 T00320027
KBMI 
25nm W 
090156Z 08009KT 6SM -SN BR OVC021 02/01 A3002 RMK AO2 RAE21SNB21 SLP175 P0003 T00220011
KCMI 
27nm S 
090212Z 08010KT 4SM -RA BR BKN017 BKN025 OVC040 04/03 A3002 RMK AO2 P0000 T00440033
KPNT 
29nm NW 
090210Z AUTO 08009KT 10SM SCT044 OVC060 03/02 A3003 RMK AO2 T00250015
TAF
KBMI 
25nm W 
081740Z 0818/0918 16008KT P6SM OVC250 FM090100 08014KT 6SM RA BR OVC025 FM090500 08013G22KT 4SM RA BR OVC008 FM090800 09016G24KT 1 1/2SM RA BR OVC004 FM091300 18026G40KT 2SM BR VCSH BKN006
KCMI 
27nm S 
090204Z 0902/0924 08012KT 4SM RA BR OVC025 FM090400 08013KT 3SM -SHRA BR OVC008 FM090600 11016G25KT 1SM RA BR VCTS OVC003CB FM091100 15020G35KT 2SM RA BR VCTS OVC008CB WS020/18030KT FM091300 19026G42KT 4SM BR VCTS BKN006CB FM091700 25030G46KT P6SM OVC010
NOTAMs
Click for the latest NOTAMs
NOTAMs are issued by the DoD/FAA and will open in a separate window not controlled by AirNav.

 

 
 

Would you like to see your business listed on this page?

 If your business provides an interesting product or service to pilots, flight crews, aircraft, or users of the Gibson Area Hospital Heliport, you should consider listing it here.  To start the listing process, click on the button below
 
Add a business
 

Other Pages about Gibson Area Hospital Heliport

Update a link
 
Copyright © AirNav, LLC. All rights reserved. Privacy Policy  Contact